KPAE

Snohomish County (Paine Field) Airport

Everett, Washington, USA
METAR KPAE 170253Z 32003KT 10SM CLR 13/08 A3025 RMK AO2 SLP245 T01280078 53002
Observed Flight Rules
Oct-17 @ 02:53 UTC (47 minutes ago) Visual Flight Rules
Wind Visibility Clouds
320° at 3 knots 10 miles
  • Clear skies
Temperatures Readings
Current 13°C / 55°F
Dewpoint 8°C / 46°F
Humidity 72%
Altimeter 30.25" Hg
Pressure 1024.5 hPa
Elevation 180
METAR KPAE 170253Z 32003KT 10SM CLR 13/08 A3025 RMK AO2 SLP245 T01280078 53002
Observed Flight Rules
Oct-17 @ 02:53 UTC
(47 minutes ago)
VFR
Wind Visibility
320° at 3 knots 10 miles
Clouds
  • Clear skies
Temperature Dewpoint
13°C / 55°F 8°C / 46°F
Humidity Altimeter Pressure
72% 30.25" Hg 1024.5 hPa